Time;durP1;ratioP1;P1;durP2;ratioP2;P2;SDS_P1;SDS_P2;PMS_P1;PMS_P2;Temp;Humidity;BMP_temperature;BMP_pressure;BME280_temperature;BME280_humidity;BME280_pressure;Samples;Min_cycle;Max_cycle;Signal;HPM_P1;HPM_P2
2022/03/01 00:00:00;;;;;;;7.40;5.43;;;3.00;99.90;;;;;;5090816;27;20043;-77
2022/03/01 00:02:34;;;;;;;9.40;2.80;;;3.00;99.90;;;;;;5092117;27;20027;-77
2022/03/01 00:05:00;;;;;;;2.55;1.65;;;2.90;99.90;;;;;;5110555;27;20035;-77
2022/03/01 00:07:26;;;;;;;8.40;4.03;;;2.90;99.90;;;;;;5092162;27;20035;-77
2022/03/01 00:09:51;;;;;;;7.90;2.72;;;2.90;99.90;;;;;;5093105;27;20047;-77
2022/03/01 00:12:17;;;;;;;2.58;2.38;;;2.90;99.90;;;;;;5108721;27;20043;-76
2022/03/01 00:14:42;;;;;;;3.88;2.58;;;2.90;99.90;;;;;;5109532;27;20043;-77
2022/03/01 00:17:09;;;;;;;5.22;3.75;;;2.90;99.90;;;;;;5092930;27;20521;-76
2022/03/01 00:19:34;;;;;;;3.30;2.95;;;2.80;99.90;;;;;;5104818;28;20058;-77
2022/03/01 00:22:00;;;;;;;7.28;3.80;;;2.90;99.90;;;;;;5088842;28;20031;-77
2022/03/01 00:24:26;;;;;;;4.75;3.10;;;2.80;99.90;;;;;;5105867;28;20566;-76
2022/03/01 00:26:51;;;;;;;8.80;4.80;;;2.90;99.90;;;;;;5089354;28;20044;-77
2022/03/01 00:29:17;;;;;;;17.15;4.00;;;2.80;99.90;;;;;;5088180;28;20036;-77
2022/03/01 00:31:43;;;;;;;4.07;2.67;;;2.80;99.90;;;;;;5105491;28;20043;-77
2022/03/01 00:34:08;;;;;;;5.28;2.97;;;2.70;99.90;;;;;;5089088;28;20109;-77
2022/03/01 00:36:36;;;;;;;6.90;3.85;;;2.80;99.90;;;;;;5105155;28;20071;-77
2022/03/01 00:39:04;;;;;;;1.05;1.05;;;2.80;99.90;;;;;;5105730;28;20043;-77
2022/03/01 00:41:29;;;;;;;2.15;1.50;;;2.80;99.90;;;;;;5088263;28;20040;-77
2022/03/01 00:43:55;;;;;;;1.90;1.67;;;2.80;99.90;;;;;;5088700;28;20055;-77
2022/03/01 00:46:22;;;;;;;2.17;1.98;;;2.70;99.90;;;;;;5088632;28;20036;-77
2022/03/01 00:48:48;;;;;;;4.57;3.17;;;2.70;99.90;;;;;;5089036;28;20048;-77
2022/03/01 00:51:14;;;;;;;4.13;2.90;;;2.70;99.90;;;;;;5087730;28;20052;-77
2022/03/01 00:53:39;;;;;;;2.35;2.05;;;2.70;99.90;;;;;;5088271;28;20047;-77
2022/03/01 00:56:05;;;;;;;4.88;2.72;;;2.70;99.90;;;;;;5089759;28;20142;-77
2022/03/01 00:58:31;;;;;;;4.68;3.03;;;2.70;99.90;;;;;;5088412;28;20039;-77
2022/03/01 01:00:57;;;;;;;5.55;2.35;;;2.70;99.90;;;;;;5105971;28;20051;-77
2022/03/01 01:03:23;;;;;;;5.32;3.90;;;2.70;99.90;;;;;;5088673;28;20035;-77
2022/03/01 01:05:48;;;;;;;3.88;2.55;;;2.60;99.90;;;;;;5087637;28;20036;-77
2022/03/01 01:08:14;;;;;;;6.28;3.70;;;2.70;99.90;;;;;;5088651;28;20047;-77
2022/03/01 01:10:40;;;;;;;3.63;2.60;;;2.70;99.90;;;;;;5103388;28;20038;-77
2022/03/01 01:13:06;;;;;;;1.80;1.70;;;2.70;99.90;;;;;;5105128;27;20052;-77
2022/03/01 01:15:32;;;;;;;6.05;4.80;;;2.70;99.90;;;;;;5090540;28;20765;-77
2022/03/01 01:17:57;;;;;;;5.50;2.58;;;2.70;99.90;;;;;;5092330;28;20036;-77
2022/03/01 01:20:23;;;;;;;3.13;2.05;;;2.70;99.90;;;;;;5109405;28;20063;-77
2022/03/01 01:22:49;;;;;;;2.90;2.42;;;2.60;99.90;;;;;;5092484;28;20039;-77
2022/03/01 01:25:19;;;;;;;2.05;1.90;;;2.70;99.90;;;;;;5092027;28;20040;-77
2022/03/01 01:27:47;;;;;;;3.35;2.20;;;2.60;99.90;;;;;;5092609;28;20047;-77
2022/03/01 01:30:17;;;;;;;2.95;2.70;;;2.50;99.90;;;;;;5091651;28;20150;-77
2022/03/01 01:32:43;;;;;;;8.15;3.30;;;2.50;99.90;;;;;;5092284;28;20403;-77
2022/03/01 01:35:12;;;;;;;3.92;3.00;;;2.50;99.90;;;;;;5094597;28;20044;-77
2022/03/01 01:37:38;;;;;;;3.08;2.30;;;2.50;99.90;;;;;;5089069;28;20043;-77
2022/03/01 01:40:07;;;;;;;6.80;3.38;;;2.50;99.90;;;;;;5076938;28;20472;-77
2022/03/01 01:42:33;;;;;;;5.80;3.58;;;2.40;99.90;;;;;;5071771;28;20810;-76
2022/03/01 01:45:00;;;;;;;2.63;2.42;;;2.40;99.90;;;;;;5088575;28;20123;-77
2022/03/01 01:47:26;;;;;;;2.55;2.30;;;2.40;99.90;;;;;;5071538;28;20126;-77
2022/03/01 01:49:51;;;;;;;3.47;2.95;;;2.40;99.90;;;;;;5090782;28;20515;-77
2022/03/01 01:52:17;;;;;;;3.15;2.88;;;2.40;99.90;;;;;;5092148;28;20043;-77
2022/03/01 01:54:43;;;;;;;1.38;1.30;;;2.30;99.90;;;;;;5091990;28;20082;-77
2022/03/01 01:57:13;;;;;;;3.47;2.75;;;2.30;99.90;;;;;;5108543;28;20116;-77
2022/03/01 01:59:39;;;;;;;2.58;2.35;;;2.20;99.90;;;;;;5090481;28;20077;-77
2022/03/01 02:02:05;;;;;;;1.30;1.20;;;2.20;99.90;;;;;;5108440;28;20044;-77
2022/03/01 02:04:31;;;;;;;3.10;1.38;;;2.30;99.90;;;;;;5090565;28;20062;-77
2022/03/01 02:06:57;;;;;;;3.00;1.88;;;2.20;99.90;;;;;;5108050;28;20061;-77
2022/03/01 02:09:22;;;;;;;2.00;1.83;;;2.20;99.90;;;;;;5091622;28;20122;-77
2022/03/01 02:11:48;;;;;;;0.98;0.98;;;2.20;99.90;;;;;;5091169;28;20049;-77
2022/03/01 02:14:13;;;;;;;3.72;2.45;;;2.10;99.90;;;;;;5091564;28;20046;-77
2022/03/01 02:16:41;;;;;;;1.35;1.10;;;2.10;99.90;;;;;;5090696;28;20065;-78
2022/03/01 02:19:12;;;;;;;20.20;3.90;;;2.10;99.90;;;;;;5090740;27;20079;-77
2022/03/01 02:21:45;;;;;;;0.77;0.75;;;2.10;99.90;;;;;;5094665;27;20126;-77
2022/03/01 02:24:11;;;;;;;5.80;3.17;;;2.10;99.90;;;;;;5094122;27;20376;-77
2022/03/01 02:26:37;;;;;;;2.65;1.85;;;2.10;99.90;;;;;;5111562;27;20046;-77
2022/03/01 02:29:02;;;;;;;5.60;1.75;;;2.10;99.90;;;;;;5111861;27;20902;-77
2022/03/01 02:31:28;;;;;;;5.70;2.72;;;2.10;99.90;;;;;;5111185;27;20142;-77
2022/03/01 02:33:54;;;;;;;3.47;1.80;;;2.20;99.90;;;;;;5094636;27;20108;-77
2022/03/01 02:36:19;;;;;;;6.47;4.30;;;2.20;99.90;;;;;;5090426;28;20039;-77
2022/03/01 02:38:45;;;;;;;5.25;2.67;;;2.20;99.90;;;;;;5090844;28;20168;-78
2022/03/01 02:41:10;;;;;;;2.50;1.90;;;2.20;99.90;;;;;;5073946;28;20478;-77
2022/03/01 02:43:36;;;;;;;2.13;1.92;;;2.30;99.90;;;;;;5074463;27;20038;-77
2022/03/01 02:46:01;;;;;;;5.50;2.38;;;2.30;99.90;;;;;;5090881;28;20609;-77
2022/03/01 02:48:27;;;;;;;4.95;2.65;;;2.30;99.90;;;;;;5091015;28;20043;-77
2022/03/01 02:50:53;;;;;;;2.05;1.55;;;2.30;99.90;;;;;;5081505;27;20683;-77
2022/03/01 02:53:18;;;;;;;6.60;3.33;;;2.30;99.90;;;;;;5111302;27;20053;-77
2022/03/01 02:55:44;;;;;;;2.45;2.13;;;2.30;99.90;;;;;;5110976;27;20086;-77
2022/03/01 02:58:09;;;;;;;7.95;3.55;;;2.30;99.90;;;;;;5093409;27;20050;-77
2022/03/01 03:00:35;;;;;;;4.10;2.90;;;2.40;99.90;;;;;;5111141;27;20149;-77
2022/03/01 03:03:00;;;;;;;2.50;2.13;;;2.40;99.90;;;;;;5110940;27;20039;-77
2022/03/01 03:05:26;;;;;;;10.68;2.78;;;2.40;99.90;;;;;;5094226;27;20070;-77
2022/03/01 03:07:52;;;;;;;0.95;0.95;;;2.40;99.90;;;;;;5109723;27;20035;-77
2022/03/01 03:10:17;;;;;;;4.75;3.50;;;2.40;99.90;;;;;;5127024;27;20045;-77
2022/03/01 03:12:43;;;;;;;5.90;2.60;;;2.40;99.90;;;;;;5110724;27;20123;-77
2022/03/01 03:15:10;;;;;;;6.13;3.70;;;2.40;99.90;;;;;;5128013;27;20057;-77
2022/03/01 03:17:36;;;;;;;1.70;1.60;;;2.40;99.90;;;;;;5110719;27;20054;-77
2022/03/01 03:20:03;;;;;;;1.45;1.35;;;2.40;99.90;;;;;;5091754;27;20051;-77
2022/03/01 03:22:29;;;;;;;2.55;2.08;;;2.40;99.90;;;;;;5093565;27;20043;-77
2022/03/01 03:24:55;;;;;;;5.70;3.08;;;2.40;99.90;;;;;;5108553;27;20069;-77
2022/03/01 03:27:21;;;;;;;3.90;3.17;;;2.40;99.90;;;;;;5075120;28;20062;-77
2022/03/01 03:29:47;;;;;;;5.55;3.10;;;2.50;99.90;;;;;;5093840;27;20039;-77
2022/03/01 03:32:12;;;;;;;3.17;2.88;;;2.50;99.90;;;;;;5093630;27;20039;-77
2022/03/01 03:34:38;;;;;;;1.45;1.20;;;2.60;99.90;;;;;;5109220;27;20142;-77
2022/03/01 03:37:04;;;;;;;11.00;3.63;;;2.60;99.90;;;;;;5110037;27;20078;-77
2022/03/01 03:39:30;;;;;;;1.08;1.08;;;2.60;99.90;;;;;;5109860;27;20046;-77
2022/03/01 03:41:55;;;;;;;7.13;3.53;;;2.50;99.90;;;;;;5109213;27;20035;-77
2022/03/01 03:44:21;;;;;;;4.47;3.00;;;2.60;99.90;;;;;;5100090;28;20031;-77
2022/03/01 03:46:47;;;;;;;5.75;2.80;;;2.60;99.90;;;;;;5075301;27;20487;-77
2022/03/01 03:49:13;;;;;;;2.55;1.95;;;2.60;99.90;;;;;;5091968;27;20054;-77
2022/03/01 03:51:38;;;;;;;2.75;2.50;;;2.50;99.90;;;;;;5126742;27;20047;-77
2022/03/01 03:54:04;;;;;;;13.75;2.45;;;2.50;99.90;;;;;;5112018;27;20096;-77
2022/03/01 03:56:29;;;;;;;6.88;3.80;;;2.60;99.90;;;;;;5093267;27;20091;-77
2022/03/01 03:58:57;;;;;;;6.07;4.57;;;2.50;99.90;;;;;;5109523;27;20147;-77
2022/03/01 04:01:23;;;;;;;6.68;3.22;;;2.50;99.90;;;;;;5088965;28;20040;-77
2022/03/01 04:03:50;;;;;;;5.20;3.85;;;2.50;99.90;;;;;;5089629;28;20040;-77
2022/03/01 04:06:16;;;;;;;5.80;2.95;;;2.50;99.90;;;;;;5089366;28;20139;-78
2022/03/01 04:08:41;;;;;;;3.60;1.85;;;2.50;99.90;;;;;;5109371;27;20406;-77
2022/03/01 04:11:07;;;;;;;2.95;1.83;;;2.50;99.90;;;;;;5093048;27;20424;-77
2022/03/01 04:13:33;;;;;;;3.35;2.72;;;2.50;99.90;;;;;;5109593;27;20054;-77
2022/03/01 04:15:59;;;;;;;2.35;2.00;;;2.40;99.90;;;;;;5109746;27;20050;-77
2022/03/01 04:18:24;;;;;;;2.00;1.88;;;2.40;99.90;;;;;;5092546;27;20217;-77
2022/03/01 04:20:50;;;;;;;5.00;2.88;;;2.40;99.90;;;;;;5123266;27;20104;-77
2022/03/01 04:23:16;;;;;;;7.10;2.45;;;2.40;99.90;;;;;;5105019;28;20442;-77
2022/03/01 04:25:42;;;;;;;7.05;4.57;;;2.40;99.90;;;;;;5106226;28;20051;-78
2022/03/01 04:28:08;;;;;;;1.92;1.83;;;2.40;99.90;;;;;;5104564;28;20039;-77
2022/03/01 04:30:43;;;;;;;2.65;1.90;;;2.40;99.90;;;;;;5105565;28;20497;-77
2022/03/01 04:33:08;;;;;;;4.50;3.45;;;2.40;99.90;;;;;;5105902;28;20027;-77
2022/03/01 04:35:34;;;;;;;10.93;4.03;;;2.40;99.90;;;;;;5084508;28;20383;-77
2022/03/01 04:38:00;;;;;;;4.57;3.85;;;2.40;99.90;;;;;;5069064;28;20040;-77
2022/03/01 04:40:25;;;;;;;8.00;4.00;;;2.40;99.90;;;;;;5068630;28;20192;-77
2022/03/01 04:42:52;;;;;;;1.73;1.63;;;2.50;99.90;;;;;;5085711;28;20044;-77
2022/03/01 04:45:18;;;;;;;3.22;2.35;;;2.40;99.90;;;;;;5105504;28;20046;-77
2022/03/01 04:47:43;;;;;;;1.63;1.52;;;2.40;99.90;;;;;;5105926;28;20122;-77
2022/03/01 04:50:09;;;;;;;3.83;2.40;;;2.40;99.90;;;;;;5105205;28;20044;-77
2022/03/01 04:52:35;;;;;;;2.35;1.80;;;2.40;99.90;;;;;;5089498;28;20100;-77
2022/03/01 04:55:01;;;;;;;3.72;3.17;;;2.40;99.90;;;;;;5088632;28;20089;-77
2022/03/01 04:57:26;;;;;;;1.60;1.48;;;2.40;99.90;;;;;;5084651;28;20762;-77
2022/03/01 04:59:52;;;;;;;3.80;2.75;;;2.50;99.90;;;;;;5101982;28;20101;-77
2022/03/01 05:02:18;;;;;;;4.82;3.83;;;2.50;99.90;;;;;;5122264;28;20089;-77
2022/03/01 05:04:44;;;;;;;6.25;3.22;;;2.40;99.90;;;;;;5077673;28;20044;-77
2022/03/01 05:07:10;;;;;;;6.72;2.95;;;2.50;99.90;;;;;;5088534;28;20122;-77
2022/03/01 05:09:35;;;;;;;2.15;1.98;;;2.40;99.90;;;;;;5105210;28;20403;-77
2022/03/01 05:12:01;;;;;;;4.60;3.05;;;2.50;99.90;;;;;;5104333;28;20104;-77
2022/03/01 05:14:27;;;;;;;2.55;1.58;;;2.50;99.90;;;;;;5088588;28;20546;-77
2022/03/01 05:16:52;;;;;;;3.35;2.15;;;2.50;99.90;;;;;;5089241;28;20086;-77
2022/03/01 05:19:18;;;;;;;2.95;2.70;;;2.50;99.90;;;;;;5107640;28;20086;-77
2022/03/01 05:21:44;;;;;;;2.38;2.17;;;2.50;99.90;;;;;;5092230;28;20130;-77
2022/03/01 05:24:10;;;;;;;5.60;2.42;;;2.50;99.90;;;;;;5091719;28;20043;-78
2022/03/01 05:26:36;;;;;;;2.20;1.20;;;2.50;99.90;;;;;;5091884;28;20039;-77
2022/03/01 05:29:01;;;;;;;0.75;0.70;;;2.50;99.90;;;;;;5090539;28;20035;-77
2022/03/01 05:31:27;;;;;;;4.07;2.80;;;2.50;99.90;;;;;;5091744;28;20043;-77
2022/03/01 05:33:53;;;;;;;1.40;1.25;;;2.50;99.90;;;;;;5091474;28;20096;-77
2022/03/01 05:36:22;;;;;;;4.05;2.72;;;2.50;99.90;;;;;;5087319;28;20136;-77
2022/03/01 05:38:47;;;;;;;5.70;3.25;;;2.40;99.90;;;;;;5087836;28;20047;-77
2022/03/01 05:41:13;;;;;;;1.83;1.67;;;2.40;99.90;;;;;;5088871;28;20040;-77
2022/03/01 05:43:39;;;;;;;3.25;1.77;;;2.50;99.90;;;;;;5107093;28;20506;-77
2022/03/01 05:46:05;;;;;;;1.73;1.60;;;2.50;99.90;;;;;;5096884;28;20122;-77
2022/03/01 05:48:31;;;;;;;1.83;1.73;;;2.40;99.90;;;;;;5108253;28;20043;-77
2022/03/01 05:50:57;;;;;;;1.95;1.85;;;2.40;99.90;;;;;;5108144;28;20384;-77
2022/03/01 05:53:24;;;;;;;4.13;3.28;;;2.40;99.90;;;;;;5125298;28;20039;-78
2022/03/01 05:55:50;;;;;;;4.50;1.90;;;2.40;99.90;;;;;;5108584;28;20444;-77
2022/03/01 05:58:16;;;;;;;5.53;4.43;;;2.40;99.90;;;;;;5090141;28;20452;-77
2022/03/01 06:00:47;;;;;;;5.30;3.28;;;2.50;99.90;;;;;;5092853;27;20039;-78
2022/03/01 06:03:19;;;;;;;1.95;0.95;;;2.50;99.90;;;;;;5112745;27;20043;-77
2022/03/01 06:05:44;;;;;;;2.10;1.35;;;2.50;99.90;;;;;;5106503;27;20039;-77
2022/03/01 06:08:13;;;;;;;0.38;0.38;;;2.50;99.90;;;;;;5095491;27;20054;-77
2022/03/01 06:10:54;;;;;;;0.88;0.88;;;2.40;99.90;;;;;;5110227;27;20042;-77
2022/03/01 06:13:20;;;;;;;6.30;3.63;;;2.40;99.90;;;;;;5112018;27;20073;-77
2022/03/01 06:15:48;;;;;;;2.60;2.00;;;2.40;99.90;;;;;;5111328;27;20130;-77
2022/03/01 06:18:14;;;;;;;0.50;0.50;;;2.40;99.90;;;;;;5111695;27;20039;-78
2022/03/01 06:20:40;;;;;;;1.58;1.38;;;2.40;99.90;;;;;;5105973;27;20053;-77
2022/03/01 06:23:05;;;;;;;1.52;1.42;;;2.50;99.90;;;;;;5127173;27;20039;-77
2022/03/01 06:25:31;;;;;;;3.50;2.15;;;2.50;99.90;;;;;;5105950;27;20064;-77
2022/03/01 06:27:57;;;;;;;2.20;1.63;;;2.50;99.90;;;;;;5079479;28;20036;-77
2022/03/01 06:30:23;;;;;;;2.90;1.98;;;2.50;99.90;;;;;;5097738;27;20640;-77
2022/03/01 06:32:49;;;;;;;0.73;0.73;;;2.60;99.90;;;;;;5092602;27;20112;-77
2022/03/01 06:35:14;;;;;;;4.82;1.90;;;2.60;99.90;;;;;;5094881;27;20483;-77
2022/03/01 06:37:40;;;;;;;3.28;1.55;;;2.60;99.90;;;;;;5091259;27;20038;-77
2022/03/01 06:40:07;;;;;;;6.70;2.47;;;2.60;99.90;;;;;;5092851;27;20039;-77
2022/03/01 06:42:33;;;;;;;5.00;3.08;;;2.70;99.90;;;;;;5110989;27;20031;-77
2022/03/01 06:44:59;;;;;;;4.25;2.92;;;2.70;99.90;;;;;;5111340;27;20094;-77
2022/03/01 06:47:24;;;;;;;5.15;3.95;;;2.80;99.90;;;;;;5110298;27;20039;-77
2022/03/01 06:49:51;;;;;;;1.83;1.70;;;2.80;99.90;;;;;;5093586;27;20035;-77
2022/03/01 06:52:17;;;;;;;9.68;5.43;;;2.90;99.90;;;;;;5109325;27;20039;-77
2022/03/01 06:54:42;;;;;;;2.28;2.08;;;2.90;99.90;;;;;;5110803;27;20510;-77
2022/03/01 06:57:08;;;;;;;2.50;2.13;;;2.90;99.90;;;;;;5110926;27;20043;-76
2022/03/01 06:59:34;;;;;;;3.63;2.50;;;2.90;99.90;;;;;;5106762;27;20625;-76
2022/03/01 07:02:00;;;;;;;7.80;4.53;;;3.00;99.90;;;;;;5110710;27;20039;-77
2022/03/01 07:04:26;;;;;;;2.65;1.90;;;3.00;99.90;;;;;;5098964;28;20039;-77
2022/03/01 07:06:52;;;;;;;2.78;2.00;;;3.00;99.90;;;;;;5083688;27;20067;-77
2022/03/01 07:09:18;;;;;;;4.50;2.58;;;3.10;99.90;;;;;;5110134;27;20078;-77
2022/03/01 07:11:44;;;;;;;3.47;2.60;;;3.10;99.90;;;;;;5102887;27;20608;-77
2022/03/01 07:14:09;;;;;;;4.68;3.65;;;3.10;99.90;;;;;;5111684;27;20071;-76
2022/03/01 07:16:35;;;;;;;4.70;3.33;;;3.20;99.90;;;;;;5092998;27;20131;-76
2022/03/01 07:19:00;;;;;;;2.20;1.40;;;3.20;99.90;;;;;;5085962;27;20039;-77
2022/03/01 07:21:26;;;;;;;1.10;0.93;;;3.30;99.90;;;;;;5092430;27;20124;-77
2022/03/01 07:23:52;;;;;;;4.38;2.70;;;3.20;99.90;;;;;;5110831;27;20041;-77
2022/03/01 07:26:17;;;;;;;3.70;2.47;;;3.30;99.90;;;;;;5076904;28;20104;-76
2022/03/01 07:28:43;;;;;;;3.30;2.00;;;3.30;99.90;;;;;;5073283;28;20035;-77
2022/03/01 07:31:09;;;;;;;4.93;2.95;;;3.40;99.90;;;;;;5100512;27;20050;-77
2022/03/01 07:33:38;;;;;;;6.15;4.05;;;3.40;99.90;;;;;;5110752;27;20038;-79
2022/03/01 07:36:04;;;;;;;6.95;4.47;;;3.40;99.90;;;;;;5093620;27;20035;-77
2022/03/01 07:38:29;;;;;;;14.07;3.22;;;3.50;99.90;;;;;;5089131;28;20443;-77
2022/03/01 07:40:55;;;;;;;4.90;3.20;;;3.50;99.90;;;;;;5076890;27;20050;-77
2022/03/01 07:43:20;;;;;;;1.95;1.83;;;3.50;99.90;;;;;;5110129;27;20039;-76
2022/03/01 07:45:46;;;;;;;1.90;1.55;;;3.60;99.90;;;;;;5106192;27;20038;-77
2022/03/01 07:48:12;;;;;;;4.78;3.42;;;3.60;99.90;;;;;;5110295;27;20573;-77
2022/03/01 07:50:38;;;;;;;6.50;4.18;;;3.70;99.90;;;;;;5110460;27;20133;-77
2022/03/01 07:53:04;;;;;;;8.70;4.63;;;3.70;99.90;;;;;;5092839;27;20039;-77
2022/03/01 07:55:30;;;;;;;7.70;4.70;;;3.70;99.90;;;;;;5088893;28;20047;-77
2022/03/01 07:57:56;;;;;;;4.72;3.53;;;3.70;99.90;;;;;;5090250;27;20050;-77
2022/03/01 08:00:24;;;;;;;4.93;3.17;;;3.80;99.90;;;;;;5091838;27;20130;-77
2022/03/01 08:02:52;;;;;;;8.70;5.05;;;3.80;99.90;;;;;;5125543;27;20047;-77
2022/03/01 08:05:17;;;;;;;3.88;3.47;;;3.70;99.90;;;;;;5107172;27;20035;-77
2022/03/01 08:07:43;;;;;;;1.52;1.35;;;3.80;99.90;;;;;;5090927;27;20092;-78
2022/03/01 08:10:09;;;;;;;7.30;4.65;;;3.80;99.90;;;;;;5103313;27;20049;-77
2022/03/01 08:12:34;;;;;;;5.88;3.35;;;3.80;99.90;;;;;;5109718;27;20047;-77
2022/03/01 08:15:00;;;;;;;6.88;3.78;;;3.80;99.90;;;;;;5109820;27;20088;-77
2022/03/01 08:17:26;;;;;;;9.95;5.38;;;3.80;99.90;;;;;;5108907;27;20039;-77
2022/03/01 08:19:51;;;;;;;0.85;0.82;;;3.90;99.90;;;;;;5106474;28;20769;-77
2022/03/01 08:22:17;;;;;;;2.17;1.48;;;3.90;99.90;;;;;;5088860;28;20051;-77
2022/03/01 08:24:43;;;;;;;3.53;2.40;;;3.90;99.90;;;;;;5093776;28;20051;-77
2022/03/01 08:27:09;;;;;;;1.52;1.42;;;3.90;99.90;;;;;;5089248;28;20035;-77
2022/03/01 08:29:35;;;;;;;1.77;1.65;;;4.00;99.90;;;;;;5085454;28;20597;-77
2022/03/01 08:32:01;;;;;;;2.60;2.40;;;4.10;99.90;;;;;;5087811;28;20047;-77
2022/03/01 08:34:26;;;;;;;8.80;4.93;;;4.20;99.90;;;;;;5102924;28;20098;-78
2022/03/01 08:36:52;;;;;;;5.18;3.45;;;4.30;99.90;;;;;;5093421;28;20048;-77
2022/03/01 08:39:18;;;;;;;4.75;3.80;;;4.40;99.90;;;;;;5084213;28;20104;-77
2022/03/01 08:41:44;;;;;;;3.22;2.50;;;4.50;99.90;;;;;;5104419;28;20122;-77
2022/03/01 08:44:11;;;;;;;5.22;3.13;;;4.60;99.90;;;;;;5101373;28;20669;-77
2022/03/01 08:46:37;;;;;;;4.07;2.88;;;4.80;99.90;;;;;;5089078;28;20043;-77
2022/03/01 08:49:03;;;;;;;2.35;2.15;;;5.00;99.90;;;;;;5105193;28;20055;-78
2022/03/01 08:51:30;;;;;;;6.13;3.25;;;5.10;99.90;;;;;;5105763;28;20683;-77
2022/03/01 08:53:56;;;;;;;3.10;2.80;;;5.30;99.90;;;;;;5116223;27;20408;-77
2022/03/01 08:56:22;;;;;;;7.75;3.55;;;5.50;99.90;;;;;;5087622;28;20054;-77
2022/03/01 08:58:48;;;;;;;9.60;4.40;;;5.70;99.90;;;;;;5106121;28;20075;-77
2022/03/01 09:01:15;;;;;;;11.15;4.90;;;5.90;99.90;;;;;;5097868;28;20078;-77
2022/03/01 09:03:41;;;;;;;11.27;5.45;;;6.30;99.90;;;;;;5071232;28;20043;-77
2022/03/01 09:06:07;;;;;;;7.03;4.68;;;6.60;99.90;;;;;;5085650;28;20035;-77
2022/03/01 09:08:34;;;;;;;7.55;4.50;;;6.80;99.90;;;;;;5088904;28;20464;-77
2022/03/01 09:11:00;;;;;;;6.60;4.47;;;7.00;99.90;;;;;;5121353;28;20047;-77
2022/03/01 09:13:35;;;;;;;4.78;2.80;;;7.00;99.90;;;;;;5104845;28;20498;-77
2022/03/01 09:16:04;;;;;;;6.55;3.85;;;7.10;99.90;;;;;;5104260;28;20046;-77
2022/03/01 09:18:29;;;;;;;4.43;2.70;;;7.30;99.90;;;;;;5087171;28;20445;-77
2022/03/01 09:20:55;;;;;;;7.60;5.13;;;7.30;98.30;;;;;;5085072;28;20077;-77
2022/03/01 09:23:21;;;;;;;4.75;3.40;;;7.20;96.90;;;;;;5101949;28;20063;-77
2022/03/01 09:25:46;;;;;;;5.18;3.05;;;7.00;97.90;;;;;;5102106;28;20040;-77
2022/03/01 09:28:12;;;;;;;6.97;2.78;;;6.80;98.30;;;;;;5105048;28;20460;-77
2022/03/01 09:30:37;;;;;;;4.53;2.17;;;6.70;99.70;;;;;;5087858;28;20040;-77
2022/03/01 09:33:03;;;;;;;5.93;4.25;;;6.60;99.00;;;;;;5087810;28;20044;-77
2022/03/01 09:35:29;;;;;;;6.97;4.00;;;6.50;98.00;;;;;;5086541;28;20052;-77
2022/03/01 09:37:55;;;;;;;4.70;3.80;;;6.40;98.10;;;;;;5071998;28;20101;-77
2022/03/01 09:40:20;;;;;;;2.95;1.75;;;6.30;99.60;;;;;;5088813;28;20040;-77
2022/03/01 09:42:46;;;;;;;3.20;2.50;;;6.30;99.80;;;;;;5104659;28;20044;-77
2022/03/01 09:45:13;;;;;;;2.88;1.42;;;6.30;99.90;;;;;;5089724;28;20090;-77
2022/03/01 09:47:42;;;;;;;8.32;5.25;;;6.30;99.90;;;;;;5094229;28;20031;-77
2022/03/01 09:50:09;;;;;;;4.35;2.67;;;6.40;99.90;;;;;;5107957;28;20391;-77
2022/03/01 09:52:36;;;;;;;3.63;1.58;;;6.60;99.90;;;;;;5107357;28;20040;-77
2022/03/01 09:55:02;;;;;;;4.55;3.55;;;6.70;99.90;;;;;;5108826;28;20039;-77
2022/03/01 09:57:27;;;;;;;0.73;0.73;;;6.80;99.90;;;;;;5108905;28;20082;-77
2022/03/01 09:59:53;;;;;;;1.13;1.05;;;7.00;99.90;;;;;;5091106;28;20090;-77
2022/03/01 10:02:19;;;;;;;4.43;3.08;;;7.10;99.50;;;;;;5091641;28;20399;-77
2022/03/01 10:04:52;;;;;;;5.55;4.63;;;7.40;99.90;;;;;;5109048;28;20089;-77
2022/03/01 10:07:26;;;;;;;6.13;3.50;;;7.60;99.90;;;;;;5108871;28;20032;-77
2022/03/01 10:09:52;;;;;;;3.72;3.30;;;8.10;99.90;;;;;;5090927;28;20035;-77
2022/03/01 10:12:25;;;;;;;5.32;3.83;;;8.70;99.40;;;;;;5108724;28;20036;-77
2022/03/01 10:14:59;;;;;;;4.93;3.58;;;9.00;98.20;;;;;;5091770;28;20034;-77
2022/03/01 10:17:43;;;;;;;8.60;4.82;;;9.00;96.00;;;;;;5090784;28;20047;-77
2022/03/01 10:20:18;;;;;;;8.35;5.18;;;8.70;93.60;;;;;;5090995;28;20043;-77
2022/03/01 10:22:45;;;;;;;2.75;1.73;;;8.60;92.70;;;;;;5108988;28;20512;-77
2022/03/01 10:25:12;;;;;;;12.77;7.13;;;8.40;94.60;;;;;;5108529;28;20039;-77
2022/03/01 10:27:37;;;;;;;4.95;3.65;;;8.40;95.30;;;;;;5125714;27;20048;-77
2022/03/01 10:30:05;;;;;;;3.17;2.13;;;8.30;96.10;;;;;;5073347;28;20048;-77
2022/03/01 10:32:31;;;;;;;9.77;4.80;;;8.20;95.30;;;;;;5078925;28;20051;-77
2022/03/01 10:35:08;;;;;;;4.60;2.75;;;8.20;99.50;;;;;;5091472;28;20078;-76
2022/03/01 10:37:39;;;;;;;5.15;3.58;;;8.10;97.80;;;;;;5091258;28;20043;-77
2022/03/01 10:40:14;;;;;;;4.63;2.83;;;8.10;97.10;;;;;;5108042;28;20040;-77
2022/03/01 10:42:40;;;;;;;3.33;1.55;;;8.20;98.60;;;;;;5106287;28;20408;-77
2022/03/01 10:45:08;;;;;;;3.20;2.15;;;8.20;98.40;;;;;;5108310;28;20547;-76
2022/03/01 10:47:35;;;;;;;6.68;4.38;;;8.30;97.30;;;;;;5125205;27;20039;-77
2022/03/01 10:50:10;;;;;;;7.03;4.75;;;8.40;99.10;;;;;;5097032;28;20131;-77
2022/03/01 10:52:39;;;;;;;4.18;3.30;;;8.40;95.80;;;;;;5087305;28;20378;-76
2022/03/01 10:55:05;;;;;;;11.88;7.15;;;8.50;95.00;;;;;;5095870;28;20071;-77
2022/03/01 10:57:31;;;;;;;8.07;3.85;;;8.50;97.50;;;;;;5107995;28;20492;-77
2022/03/01 10:59:56;;;;;;;1.52;1.17;;;8.50;96.20;;;;;;5089642;28;20359;-77
2022/03/01 11:02:22;;;;;;;4.65;3.60;;;8.50;94.60;;;;;;5070748;28;20127;-77
2022/03/01 11:04:49;;;;;;;2.38;1.77;;;8.50;92.70;;;;;;5070398;28;20128;-77
2022/03/01 11:07:16;;;;;;;4.30;2.95;;;8.60;93.70;;;;;;5069766;28;20123;-77
2022/03/01 11:09:44;;;;;;;2.15;1.95;;;8.60;93.50;;;;;;5087479;28;20082;-76
2022/03/01 11:12:11;;;;;;;4.97;3.00;;;8.60;94.40;;;;;;5099464;28;20239;-76
2022/03/01 11:15:01;;;;;;;4.15;2.38;;;8.70;93.90;;;;;;5124840;27;20086;-76
2022/03/01 11:17:40;;;;;;;3.20;2.42;;;8.80;93.80;;;;;;5089235;28;20130;-76
2022/03/01 11:20:14;;;;;;;5.45;4.20;;;8.80;93.80;;;;;;5090532;28;20421;-76
2022/03/01 11:22:41;;;;;;;5.43;4.35;;;8.80;93.40;;;;;;5094902;28;20069;-76
2022/03/01 11:25:14;;;;;;;3.13;2.22;;;8.80;92.60;;;;;;5086799;28;20139;-76
2022/03/01 11:27:46;;;;;;;1.83;1.27;;;8.70;92.40;;;;;;5090506;28;20447;-76
2022/03/01 11:30:13;;;;;;;1.53;1.43;;;8.80;94.40;;;;;;5088084;28;20729;-76
2022/03/01 11:32:44;;;;;;;1.48;1.38;;;8.80;92.70;;;;;;5070063;28;20047;-76
2022/03/01 11:35:22;;;;;;;10.15;3.35;;;8.90;93.00;;;;;;5080380;28;20510;-76
2022/03/01 11:38:05;;;;;;;1.90;0.85;;;8.90;92.30;;;;;;5107260;28;20043;-76
2022/03/01 11:40:42;;;;;;;1.55;1.45;;;8.80;91.50;;;;;;5107907;28;20125;-76
2022/03/01 11:43:13;;;;;;;1.92;1.75;;;8.70;91.80;;;;;;5097292;28;20428;-76
2022/03/01 11:45:44;;;;;;;6.50;2.33;;;8.70;91.70;;;;;;5086761;28;20507;-76
2022/03/01 11:48:15;;;;;;;2.88;1.95;;;8.60;91.50;;;;;;5070239;28;20044;-76
2022/03/01 11:51:01;;;;;;;2.55;1.67;;;8.50;92.80;;;;;;5070273;28;20412;-76
2022/03/01 11:53:33;;;;;;;5.63;3.67;;;8.40;94.70;;;;;;5107134;28;20529;-76
2022/03/01 11:56:00;;;;;;;1.85;1.75;;;8.30;92.60;;;;;;5106671;28;20114;-76
2022/03/01 11:58:26;;;;;;;6.65;3.88;;;8.20;94.80;;;;;;5122734;27;20048;-76
2022/03/01 12:00:53;;;;;;;3.58;2.20;;;8.10;96.80;;;;;;5087661;28;20084;-76
2022/03/01 12:03:22;;;;;;;2.25;1.48;;;8.00;95.80;;;;;;5089353;28;20031;-76
2022/03/01 12:05:48;;;;;;;0.30;0.30;;;8.00;95.00;;;;;;5090210;28;20046;-76
2022/03/01 12:08:15;;;;;;;0.65;0.65;;;8.00;96.30;;;;;;5088795;28;20063;-76
2022/03/01 12:11:04;;;;;;;0.55;0.55;;;8.10;96.40;;;;;;5123408;27;20055;-76
2022/03/01 12:13:37;;;;;;;2.40;2.15;;;8.20;95.80;;;;;;5122433;27;20055;-76
2022/03/01 12:16:03;;;;;;;2.70;1.85;;;8.30;95.70;;;;;;5088859;28;20056;-76
2022/03/01 12:18:32;;;;;;;7.05;3.72;;;8.40;96.10;;;;;;5121215;27;20042;-76
2022/03/01 12:21:10;;;;;;;5.90;3.15;;;8.50;97.40;;;;;;5105859;28;20071;-76
2022/03/01 12:23:38;;;;;;;8.48;5.88;;;8.50;97.30;;;;;;5122495;27;20571;-76
2022/03/01 12:26:05;;;;;;;9.10;4.78;;;8.60;98.00;;;;;;5106163;28;20035;-76
2022/03/01 12:28:38;;;;;;;7.30;4.35;;;8.60;98.00;;;;;;5089051;28;20074;-76
2022/03/01 12:31:12;;;;;;;3.15;2.25;;;8.60;98.30;;;;;;5105693;28;20054;-76
2022/03/01 12:33:50;;;;;;;0.73;0.73;;;8.60;95.90;;;;;;5088985;28;20047;-76
2022/03/01 12:36:31;;;;;;;3.33;1.45;;;8.60;97.40;;;;;;5085451;28;20036;-76
2022/03/01 12:39:01;;;;;;;6.63;4.70;;;8.80;96.60;;;;;;5085533;28;20048;-76
2022/03/01 12:41:27;;;;;;;8.35;4.70;;;8.90;96.50;;;;;;5102766;28;20407;-77
2022/03/01 12:43:58;;;;;;;2.55;2.25;;;8.90;98.30;;;;;;5108702;27;20039;-76
2022/03/01 12:46:25;;;;;;;6.70;4.63;;;9.00;97.70;;;;;;5088211;28;20036;-76
2022/03/01 12:48:53;;;;;;;5.53;3.45;;;9.00;98.80;;;;;;5122472;27;20414;-76
2022/03/01 12:51:19;;;;;;;1.35;1.23;;;9.00;96.20;;;;;;5089380;28;20043;-76
2022/03/01 12:53:57;;;;;;;1.75;0.88;;;9.00;94.40;;;;;;5086163;28;20170;-76
2022/03/01 12:56:26;;;;;;;11.18;5.40;;;9.10;95.60;;;;;;5105863;28;20187;-76